• Join FlightAware (Why Join?)
  • Login
  • US Flag 
02:56PM EDT


 

Airport Tracker/Info


-or-


 

Live Flight TrackerFlight Track Log ✈ EJA941 ✈ 03-May-2013 ✈ KLAS - KSFO

Flight Track Log - Related Links

Times and Time Zones

All times are in EDT time to prevent confusion due to time zone crossing. See the EJA941 flight status page for this flight to view local times or setup timezone preferences in your user account.

Time Position Orientation Groundspeed Altitude Reporting Facility
EDT Latitude Longitude Course Direction KTS MPH feet Rate Location/Type
04:12PM 36.0672 -115.1764 212° Southwest 185 213 2,900  Level Los Angeles Center
04:13PM 36.0058 -115.2231 212° Southwest 245 282 6,500 1,980 Climbing Los Angeles Center
04:14PM 35.9817 -115.2769 241° Southwest 265 305 7,000 1,800 Climbing Los Angeles Center
04:15PM 35.9272 -115.3542 229° Southwest 284 327 9,900 1,740 Climbing Los Angeles Center
04:16PM 35.8872 -115.4836 249° West 345 397 11,000 480 Climbing Los Angeles Center
04:17PM 35.8892 -115.6497 271° West 406 467 11,000 1,320 Level Los Angeles Center
04:18PM 35.8928 -115.7911 272° West 383 441 13,800 2,220 Climbing Los Angeles Center
04:19PM 35.8944 -115.9136 271° West 360 414 15,600 1,560 Climbing Los Angeles Center
04:20PM 35.9456 -116.0294 299° West 365 420 17,100 1,440 Climbing Los Angeles Center
04:21PM 36.0222 -116.1167 317° Northwest 372 428 18,600 1,380 Climbing Los Angeles Center
04:22PM 36.1064 -116.2136 317° Northwest 383 441 20,000 1,260 Climbing Los Angeles Center
04:23PM 36.1867 -116.3047 318° Northwest 393 452 21,300 1,380 Climbing Los Angeles Center
04:24PM 36.2672 -116.3972 317° Northwest 396 456 22,900 1,380 Climbing Los Angeles Center
04:25PM 36.3494 -116.4919 317° Northwest 401 461 24,200 1,080 Climbing Los Angeles Center
04:26PM 36.4344 -116.5919 317° Northwest 418 481 25,200 1,260 Climbing Los Angeles Center
04:27PM 36.5358 -116.7122 316° Northwest 429 494 26,900 1,380 Climbing Los Angeles Center
04:29PM 36.6336 -116.8008 324° Northwest 436 502 28,100 1,080 Climbing Los Angeles Center
04:30PM 36.7428 -116.8814 329° Northwest 447 514 29,200 1,140 Climbing Los Angeles Center
04:31PM 36.8497 -116.9639 328° Northwest 454 522 30,500 1,500 Climbing Los Angeles Center
04:32PM 36.9572 -117.0481 328° Northwest 456 525 32,200 2,100 Climbing Oakland Center
04:33PM 37.0647 -117.1303 329° Northwest 454 522 34,700 2,100 Climbing Oakland Center
04:34PM 37.1694 -117.2117 328° Northwest 445 512 36,600 1,560 Climbing Oakland Center
04:35PM 37.2711 -117.2911 328° Northwest 432 497 38,000 660 Climbing Oakland Center
04:36PM 37.3303 -117.4247 299° West 445 512 38,000  Level Oakland Center
04:37PM 37.3447 -117.5756 277° West 437 503 38,000  Level Oakland Center
04:38PM 37.3617 -117.7600 277° West 440 506 38,000  Level Oakland Center
04:39PM 37.3764 -117.9128 277° West 439 505 38,000  Level Oakland Center
04:40PM 37.3903 -118.0633 277° West 434 499 38,000  Level Oakland Center
04:41PM 37.4044 -118.2156 277° West 436 502 38,000  Level Oakland Center
04:42PM 37.4192 -118.3681 277° West 438 504 38,000  Level Oakland Center
04:43PM 37.4322 -118.5194 276° West 435 501 38,000  Level Oakland Center
04:44PM 37.4464 -118.6728 277° West 440 506 38,000  Level Oakland Center
04:45PM 37.4581 -118.8244 276° West 429 494 38,000  Level Oakland Center
04:46PM 37.4722 -118.9758 277° West 434 499 38,000  Level Oakland Center
04:47PM 37.4853 -119.1269 276° West 434 499 38,000  Level Oakland Center
04:48PM 37.5044 -119.3192 277° West 455 524 38,000 -60 Level Oakland Center
04:49PM 37.5150 -119.4692 275° West 436 502 37,900 -240 Descending Oakland Center
04:50PM 37.5236 -119.5978 275° West 438 504 37,600 -1,320 Descending Oakland Center
04:51PM 37.5392 -119.7928 276° West 470 541 35,200 -2,160 Descending Oakland Center
04:52PM 37.5528 -119.9575 276° West 468 539 33,200 -2,040 Descending Oakland Center
04:53PM 37.5636 -120.1336 274° West 506 582 31,100 -2,100 Descending Oakland Center
04:54PM 37.5814 -120.2950 278° West 481 554 29,000 -2,160 Descending Oakland Center
04:55PM 37.5833 -120.3833 272° West 495 570 28,000 -2,160 Descending Northern Cal TRACON
04:56PM 37.6000 -120.5500 277° West 491 565 26,000 -2,100 Descending Northern Cal TRACON
04:57PM 37.6167 -120.7333 277° West 483 556 23,800 -2,100 Descending Northern Cal TRACON
04:58PM 37.6167 -120.8833 270° West 470 541 21,900 -2,280 Descending Northern Cal TRACON
04:59PM 37.6167 -121.0333 270° West 468 539 19,300 -2,400 Descending Northern Cal TRACON
05:00PM 37.6000 -121.2000 263° West 421 484 17,100 -2,040 Descending Northern Cal TRACON
05:01PM 37.5833 -121.3167 260° West 368 423 15,300 -2,040 Descending Northern Cal TRACON
05:02PM 37.5667 -121.4333 260° West 343 395 13,100 -2,100 Descending Northern Cal TRACON
05:03PM 37.5500 -121.5667 261° West 386 444 11,100 -1,080 Descending Northern Cal TRACON
05:04PM 37.5167 -121.7000 253° West 410 472 11,000 -480 Descending Northern Cal TRACON
05:05PM 37.5000 -121.8333 261° West 354 407 10,200 -900 Descending Northern Cal TRACON
05:06PM 37.4833 -121.9333 258° West 265 305 9,300 -1,680 Descending Northern Cal TRACON
05:07PM 37.5000 -122.0000 288° West 242 278 7,100 -2,040 Descending Northern Cal TRACON
05:08PM 37.5333 -122.0833 297° West 238 274 5,100 -1,620 Descending Northern Cal TRACON
05:08PM 37.5450 -122.1436 284° West 233 268 4,100 -1,200 Descending Oakland Center
05:09PM 37.5650 -122.2139 290° West 224 258 2,900 -1,260 Descending Oakland Center
05:10PM 37.5817 -122.2744 289° West 203 234 1,600 -1,080 Descending Oakland Center
05:11PM 37.5964 -122.3233 291° West 173 199 700 -720 Descending Oakland Center
05:13PM 37.6144 -122.3697 296° West 156 180 200 -540 Descending Oakland Center
05:15PM 37.6167 -122.3667 322° Northwest  Level FlightAware Approximate